sensor_id;sensor_type;location;lat;lon;timestamp;P1;durP1;ratioP1;P2;durP2;ratioP2
60935;SDS011;46804;51.786;19.520;2022-08-21T00:03:38;9.93;;;4.28;;
60935;SDS011;46804;51.786;19.520;2022-08-21T00:07:39;7.10;;;3.97;;
60935;SDS011;46804;51.786;19.520;2022-08-21T00:11:39;7.03;;;3.78;;
60935;SDS011;46804;51.786;19.520;2022-08-21T00:15:40;6.45;;;3.53;;
60935;SDS011;46804;51.786;19.520;2022-08-21T00:19:41;11.00;;;3.67;;
60935;SDS011;46804;51.786;19.520;2022-08-21T00:23:42;6.25;;;3.28;;
60935;SDS011;46804;51.786;19.520;2022-08-21T00:27:43;9.32;;;3.78;;
60935;SDS011;46804;51.786;19.520;2022-08-21T00:31:43;5.72;;;2.95;;
60935;SDS011;46804;51.786;19.520;2022-08-21T00:35:45;7.07;;;3.45;;
60935;SDS011;46804;51.786;19.520;2022-08-21T00:39:45;6.72;;;3.50;;
60935;SDS011;46804;51.786;19.520;2022-08-21T00:43:47;6.93;;;3.85;;
60935;SDS011;46804;51.786;19.520;2022-08-21T00:47:48;7.55;;;3.78;;
60935;SDS011;46804;51.786;19.520;2022-08-21T00:51:51;10.35;;;4.80;;
60935;SDS011;46804;51.786;19.520;2022-08-21T00:55:58;11.48;;;4.47;;
60935;SDS011;46804;51.786;19.520;2022-08-21T01:00:00;6.38;;;4.32;;
60935;SDS011;46804;51.786;19.520;2022-08-21T01:04:05;6.75;;;4.00;;
60935;SDS011;46804;51.786;19.520;2022-08-21T01:08:06;9.32;;;4.53;;
60935;SDS011;46804;51.786;19.520;2022-08-21T01:12:08;7.82;;;4.30;;
60935;SDS011;46804;51.786;19.520;2022-08-21T01:16:10;9.27;;;4.67;;
60935;SDS011;46804;51.786;19.520;2022-08-21T01:20:11;11.90;;;4.82;;
60935;SDS011;46804;51.786;19.520;2022-08-21T01:24:12;9.77;;;4.95;;
60935;SDS011;46804;51.786;19.520;2022-08-21T01:28:13;9.57;;;5.22;;
60935;SDS011;46804;51.786;19.520;2022-08-21T01:32:16;10.25;;;5.53;;
60935;SDS011;46804;51.786;19.520;2022-08-21T01:36:18;9.55;;;5.32;;
60935;SDS011;46804;51.786;19.520;2022-08-21T01:40:19;11.85;;;6.60;;
60935;SDS011;46804;51.786;19.520;2022-08-21T01:44:20;11.77;;;5.78;;
60935;SDS011;46804;51.786;19.520;2022-08-21T01:48:24;12.63;;;6.45;;
60935;SDS011;46804;51.786;19.520;2022-08-21T01:52:25;8.88;;;5.97;;
60935;SDS011;46804;51.786;19.520;2022-08-21T01:56:26;11.50;;;6.38;;
60935;SDS011;46804;51.786;19.520;2022-08-21T02:00:27;12.93;;;6.72;;
60935;SDS011;46804;51.786;19.520;2022-08-21T02:04:28;13.80;;;7.72;;
60935;SDS011;46804;51.786;19.520;2022-08-21T02:08:30;13.45;;;7.32;;
60935;SDS011;46804;51.786;19.520;2022-08-21T02:12:32;15.07;;;8.30;;
60935;SDS011;46804;51.786;19.520;2022-08-21T02:16:32;11.45;;;7.10;;
60935;SDS011;46804;51.786;19.520;2022-08-21T02:20:35;13.82;;;7.75;;
60935;SDS011;46804;51.786;19.520;2022-08-21T02:24:38;12.88;;;7.60;;
60935;SDS011;46804;51.786;19.520;2022-08-21T02:28:39;16.08;;;7.25;;
60935;SDS011;46804;51.786;19.520;2022-08-21T02:32:39;13.43;;;7.25;;
60935;SDS011;46804;51.786;19.520;2022-08-21T02:36:40;11.57;;;7.75;;
60935;SDS011;46804;51.786;19.520;2022-08-21T02:40:42;14.32;;;8.57;;
60935;SDS011;46804;51.786;19.520;2022-08-21T02:44:44;13.25;;;7.85;;
60935;SDS011;46804;51.786;19.520;2022-08-21T02:48:45;11.18;;;7.53;;
60935;SDS011;46804;51.786;19.520;2022-08-21T02:52:46;12.75;;;7.70;;
60935;SDS011;46804;51.786;19.520;2022-08-21T02:56:47;13.75;;;7.80;;
60935;SDS011;46804;51.786;19.520;2022-08-21T03:00:47;11.02;;;7.85;;
60935;SDS011;46804;51.786;19.520;2022-08-21T03:04:48;14.75;;;7.50;;
60935;SDS011;46804;51.786;19.520;2022-08-21T03:08:49;15.65;;;9.20;;
60935;SDS011;46804;51.786;19.520;2022-08-21T03:12:49;16.15;;;8.45;;
60935;SDS011;46804;51.786;19.520;2022-08-21T03:16:50;9.68;;;7.50;;
60935;SDS011;46804;51.786;19.520;2022-08-21T03:20:50;12.70;;;7.68;;
60935;SDS011;46804;51.786;19.520;2022-08-21T03:24:51;13.05;;;7.57;;
60935;SDS011;46804;51.786;19.520;2022-08-21T03:28:51;12.60;;;7.10;;
60935;SDS011;46804;51.786;19.520;2022-08-21T03:32:52;12.40;;;7.65;;
60935;SDS011;46804;51.786;19.520;2022-08-21T03:36:52;10.32;;;7.05;;
60935;SDS011;46804;51.786;19.520;2022-08-21T03:40:53;12.73;;;7.47;;
60935;SDS011;46804;51.786;19.520;2022-08-21T03:44:54;11.52;;;6.75;;
60935;SDS011;46804;51.786;19.520;2022-08-21T03:48:54;9.95;;;6.28;;
60935;SDS011;46804;51.786;19.520;2022-08-21T03:52:55;9.82;;;6.60;;
60935;SDS011;46804;51.786;19.520;2022-08-21T03:56:56;9.50;;;6.72;;
60935;SDS011;46804;51.786;19.520;2022-08-21T04:00:58;12.48;;;6.72;;
60935;SDS011;46804;51.786;19.520;2022-08-21T04:04:59;10.90;;;6.93;;
60935;SDS011;46804;51.786;19.520;2022-08-21T04:09:00;9.73;;;6.40;;
60935;SDS011;46804;51.786;19.520;2022-08-21T04:13:01;12.07;;;7.72;;
60935;SDS011;46804;51.786;19.520;2022-08-21T04:17:03;12.60;;;6.57;;
60935;SDS011;46804;51.786;19.520;2022-08-21T04:21:03;9.38;;;6.32;;
60935;SDS011;46804;51.786;19.520;2022-08-21T04:25:05;8.20;;;5.75;;
60935;SDS011;46804;51.786;19.520;2022-08-21T04:29:07;9.00;;;6.17;;
60935;SDS011;46804;51.786;19.520;2022-08-21T04:33:08;8.52;;;5.65;;
60935;SDS011;46804;51.786;19.520;2022-08-21T04:37:08;9.23;;;6.00;;
60935;SDS011;46804;51.786;19.520;2022-08-21T04:41:09;9.35;;;5.88;;
60935;SDS011;46804;51.786;19.520;2022-08-21T04:45:15;7.70;;;5.63;;
60935;SDS011;46804;51.786;19.520;2022-08-21T04:49:16;9.15;;;5.38;;
60935;SDS011;46804;51.786;19.520;2022-08-21T04:53:18;10.90;;;5.03;;
60935;SDS011;46804;51.786;19.520;2022-08-21T04:57:24;10.55;;;5.60;;
60935;SDS011;46804;51.786;19.520;2022-08-21T05:01:27;10.68;;;5.82;;
60935;SDS011;46804;51.786;19.520;2022-08-21T05:05:30;8.23;;;5.55;;
60935;SDS011;46804;51.786;19.520;2022-08-21T05:09:31;8.43;;;5.53;;
60935;SDS011;46804;51.786;19.520;2022-08-21T05:13:32;8.73;;;5.47;;
60935;SDS011;46804;51.786;19.520;2022-08-21T05:17:33;7.63;;;4.60;;
60935;SDS011;46804;51.786;19.520;2022-08-21T05:21:34;8.35;;;4.68;;
60935;SDS011;46804;51.786;19.520;2022-08-21T05:25:37;11.80;;;5.25;;
60935;SDS011;46804;51.786;19.520;2022-08-21T05:29:39;7.10;;;4.72;;
60935;SDS011;46804;51.786;19.520;2022-08-21T05:33:40;7.60;;;5.20;;
60935;SDS011;46804;51.786;19.520;2022-08-21T05:37:40;10.95;;;5.25;;
60935;SDS011;46804;51.786;19.520;2022-08-21T05:41:41;6.28;;;4.38;;
60935;SDS011;46804;51.786;19.520;2022-08-21T05:45:41;8.50;;;5.30;;
60935;SDS011;46804;51.786;19.520;2022-08-21T05:49:42;7.47;;;4.50;;
60935;SDS011;46804;51.786;19.520;2022-08-21T05:53:43;8.18;;;4.75;;
60935;SDS011;46804;51.786;19.520;2022-08-21T05:57:44;7.95;;;4.10;;
60935;SDS011;46804;51.786;19.520;2022-08-21T06:01:45;6.07;;;4.60;;
60935;SDS011;46804;51.786;19.520;2022-08-21T06:05:46;6.35;;;4.60;;
60935;SDS011;46804;51.786;19.520;2022-08-21T06:09:47;9.13;;;4.97;;
60935;SDS011;46804;51.786;19.520;2022-08-21T06:13:47;8.10;;;4.65;;
60935;SDS011;46804;51.786;19.520;2022-08-21T06:17:48;8.30;;;4.40;;
60935;SDS011;46804;51.786;19.520;2022-08-21T06:21:48;7.45;;;4.22;;
60935;SDS011;46804;51.786;19.520;2022-08-21T06:25:49;7.18;;;4.18;;
60935;SDS011;46804;51.786;19.520;2022-08-21T06:29:49;6.47;;;4.43;;
60935;SDS011;46804;51.786;19.520;2022-08-21T06:33:50;8.02;;;4.53;;
60935;SDS011;46804;51.786;19.520;2022-08-21T06:37:52;12.10;;;5.20;;
60935;SDS011;46804;51.786;19.520;2022-08-21T06:41:52;7.20;;;4.38;;
60935;SDS011;46804;51.786;19.520;2022-08-21T06:45:53;6.38;;;4.15;;
60935;SDS011;46804;51.786;19.520;2022-08-21T06:49:54;6.05;;;4.53;;
60935;SDS011;46804;51.786;19.520;2022-08-21T06:53:54;5.90;;;3.90;;
60935;SDS011;46804;51.786;19.520;2022-08-21T06:57:55;7.53;;;3.75;;
60935;SDS011;46804;51.786;19.520;2022-08-21T07:01:56;6.75;;;3.92;;
60935;SDS011;46804;51.786;19.520;2022-08-21T07:05:57;8.60;;;3.85;;
60935;SDS011;46804;51.786;19.520;2022-08-21T07:09:58;10.75;;;3.55;;
60935;SDS011;46804;51.786;19.520;2022-08-21T07:13:58;4.90;;;3.50;;
60935;SDS011;46804;51.786;19.520;2022-08-21T07:17:59;6.13;;;3.70;;
60935;SDS011;46804;51.786;19.520;2022-08-21T07:22:00;8.65;;;4.05;;
60935;SDS011;46804;51.786;19.520;2022-08-21T07:26:02;6.93;;;3.55;;
60935;SDS011;46804;51.786;19.520;2022-08-21T07:30:03;5.60;;;3.80;;
60935;SDS011;46804;51.786;19.520;2022-08-21T07:34:05;5.68;;;3.40;;
60935;SDS011;46804;51.786;19.520;2022-08-21T07:38:05;8.18;;;3.33;;
60935;SDS011;46804;51.786;19.520;2022-08-21T07:42:06;7.90;;;3.70;;
60935;SDS011;46804;51.786;19.520;2022-08-21T07:46:07;4.22;;;3.13;;
60935;SDS011;46804;51.786;19.520;2022-08-21T07:50:07;7.45;;;3.55;;
60935;SDS011;46804;51.786;19.520;2022-08-21T07:54:09;6.53;;;3.92;;
60935;SDS011;46804;51.786;19.520;2022-08-21T07:58:09;6.22;;;3.83;;
60935;SDS011;46804;51.786;19.520;2022-08-21T08:02:10;5.78;;;3.30;;
60935;SDS011;46804;51.786;19.520;2022-08-21T08:06:10;6.72;;;3.50;;
60935;SDS011;46804;51.786;19.520;2022-08-21T08:10:15;7.05;;;4.10;;
60935;SDS011;46804;51.786;19.520;2022-08-21T08:14:16;5.50;;;3.75;;
60935;SDS011;46804;51.786;19.520;2022-08-21T08:18:17;6.28;;;3.45;;
60935;SDS011;46804;51.786;19.520;2022-08-21T08:22:19;5.05;;;3.38;;
60935;SDS011;46804;51.786;19.520;2022-08-21T08:26:21;7.85;;;3.92;;
60935;SDS011;46804;51.786;19.520;2022-08-21T08:30:22;4.65;;;3.42;;
60935;SDS011;46804;51.786;19.520;2022-08-21T08:34:24;4.53;;;3.45;;
60935;SDS011;46804;51.786;19.520;2022-08-21T08:38:25;4.30;;;3.20;;
60935;SDS011;46804;51.786;19.520;2022-08-21T08:42:27;5.55;;;3.60;;
60935;SDS011;46804;51.786;19.520;2022-08-21T08:46:35;5.13;;;3.50;;
60935;SDS011;46804;51.786;19.520;2022-08-21T08:50:45;5.35;;;3.50;;
60935;SDS011;46804;51.786;19.520;2022-08-21T08:54:51;5.32;;;3.50;;
60935;SDS011;46804;51.786;19.520;2022-08-21T08:59:07;8.05;;;3.65;;
60935;SDS011;46804;51.786;19.520;2022-08-21T09:03:14;5.25;;;3.47;;
60935;SDS011;46804;51.786;19.520;2022-08-21T09:12:10;7.13;;;3.60;;
60935;SDS011;46804;51.786;19.520;2022-08-21T09:29:16;6.05;;;2.95;;
60935;SDS011;46804;51.786;19.520;2022-08-21T09:33:20;5.22;;;3.15;;
60935;SDS011;46804;51.786;19.520;2022-08-21T09:37:21;4.55;;;2.83;;
60935;SDS011;46804;51.786;19.520;2022-08-21T09:41:26;5.30;;;3.17;;
60935;SDS011;46804;51.786;19.520;2022-08-21T09:45:29;4.22;;;3.13;;
60935;SDS011;46804;51.786;19.520;2022-08-21T09:49:31;5.60;;;3.00;;
60935;SDS011;46804;51.786;19.520;2022-08-21T09:53:34;5.07;;;2.70;;
60935;SDS011;46804;51.786;19.520;2022-08-21T09:57:35;6.05;;;2.83;;
60935;SDS011;46804;51.786;19.520;2022-08-21T10:01:42;4.65;;;2.90;;
60935;SDS011;46804;51.786;19.520;2022-08-21T10:05:52;6.30;;;3.25;;
60935;SDS011;46804;51.786;19.520;2022-08-21T10:10:00;5.72;;;3.00;;
60935;SDS011;46804;51.786;19.520;2022-08-21T10:14:11;7.80;;;3.35;;
60935;SDS011;46804;51.786;19.520;2022-08-21T10:18:30;3.95;;;3.05;;
60935;SDS011;46804;51.786;19.520;2022-08-21T10:27:31;3.83;;;2.28;;
60935;SDS011;46804;51.786;19.520;2022-08-21T10:31:53;4.93;;;2.60;;
60935;SDS011;46804;51.786;19.520;2022-08-21T10:36:14;4.90;;;2.38;;
60935;SDS011;46804;51.786;19.520;2022-08-21T10:44:34;5.40;;;3.65;;
60935;SDS011;46804;51.786;19.520;2022-08-21T10:48:46;4.88;;;2.85;;
60935;SDS011;46804;51.786;19.520;2022-08-21T10:53:01;4.63;;;2.70;;
60935;SDS011;46804;51.786;19.520;2022-08-21T10:57:14;4.65;;;2.95;;
60935;SDS011;46804;51.786;19.520;2022-08-21T11:01:22;7.38;;;3.22;;
60935;SDS011;46804;51.786;19.520;2022-08-21T11:05:31;5.35;;;3.40;;
60935;SDS011;46804;51.786;19.520;2022-08-21T11:09:41;7.00;;;3.47;;
60935;SDS011;46804;51.786;19.520;2022-08-21T11:13:50;5.40;;;3.42;;
60935;SDS011;46804;51.786;19.520;2022-08-21T11:18:01;6.03;;;3.50;;
60935;SDS011;46804;51.786;19.520;2022-08-21T11:22:28;6.00;;;3.72;;
60935;SDS011;46804;51.786;19.520;2022-08-21T11:39:35;4.30;;;3.33;;
60935;SDS011;46804;51.786;19.520;2022-08-21T11:43:45;7.13;;;3.65;;
60935;SDS011;46804;51.786;19.520;2022-08-21T11:47:56;6.38;;;3.92;;
60935;SDS011;46804;51.786;19.520;2022-08-21T11:52:29;8.43;;;3.47;;
60935;SDS011;46804;51.786;19.520;2022-08-21T11:56:35;5.85;;;3.72;;
60935;SDS011;46804;51.786;19.520;2022-08-21T12:00:42;6.32;;;4.00;;
60935;SDS011;46804;51.786;19.520;2022-08-21T12:04:51;5.25;;;3.70;;
60935;SDS011;46804;51.786;19.520;2022-08-21T12:09:00;6.20;;;3.75;;
60935;SDS011;46804;51.786;19.520;2022-08-21T12:13:31;5.30;;;4.10;;
60935;SDS011;46804;51.786;19.520;2022-08-21T12:21:58;8.88;;;3.67;;
60935;SDS011;46804;51.786;19.520;2022-08-21T12:26:21;10.43;;;4.13;;
60935;SDS011;46804;51.786;19.520;2022-08-21T12:34:30;7.53;;;3.88;;
60935;SDS011;46804;51.786;19.520;2022-08-21T12:38:41;6.07;;;3.83;;
60935;SDS011;46804;51.786;19.520;2022-08-21T12:43:01;5.85;;;4.00;;
60935;SDS011;46804;51.786;19.520;2022-08-21T12:47:05;7.88;;;3.63;;
60935;SDS011;46804;51.786;19.520;2022-08-21T12:51:16;5.55;;;3.42;;
60935;SDS011;46804;51.786;19.520;2022-08-21T12:55:26;5.90;;;3.22;;
60935;SDS011;46804;51.786;19.520;2022-08-21T12:59:29;7.20;;;3.45;;
60935;SDS011;46804;51.786;19.520;2022-08-21T13:03:30;6.13;;;3.35;;
60935;SDS011;46804;51.786;19.520;2022-08-21T13:07:35;6.95;;;3.03;;
60935;SDS011;46804;51.786;19.520;2022-08-21T13:11:37;6.72;;;3.70;;
60935;SDS011;46804;51.786;19.520;2022-08-21T13:15:40;4.50;;;3.33;;
60935;SDS011;46804;51.786;19.520;2022-08-21T13:19:42;4.65;;;3.38;;
60935;SDS011;46804;51.786;19.520;2022-08-21T13:23:42;8.32;;;3.60;;
60935;SDS011;46804;51.786;19.520;2022-08-21T13:27:44;5.63;;;3.15;;
60935;SDS011;46804;51.786;19.520;2022-08-21T13:31:57;7.78;;;3.20;;
60935;SDS011;46804;51.786;19.520;2022-08-21T13:36:04;5.88;;;3.45;;
60935;SDS011;46804;51.786;19.520;2022-08-21T13:40:11;6.57;;;3.42;;
60935;SDS011;46804;51.786;19.520;2022-08-21T13:48:23;6.45;;;3.38;;
60935;SDS011;46804;51.786;19.520;2022-08-21T13:52:27;6.15;;;3.47;;
60935;SDS011;46804;51.786;19.520;2022-08-21T13:56:30;6.13;;;3.33;;
60935;SDS011;46804;51.786;19.520;2022-08-21T14:00:34;6.20;;;3.33;;
60935;SDS011;46804;51.786;19.520;2022-08-21T14:04:57;4.63;;;3.10;;
60935;SDS011;46804;51.786;19.520;2022-08-21T14:09:01;4.03;;;3.05;;
60935;SDS011;46804;51.786;19.520;2022-08-21T14:13:26;5.45;;;3.08;;
60935;SDS011;46804;51.786;19.520;2022-08-21T14:21:39;7.78;;;3.40;;
60935;SDS011;46804;51.786;19.520;2022-08-21T14:25:43;4.78;;;2.90;;
60935;SDS011;46804;51.786;19.520;2022-08-21T14:29:45;8.27;;;3.13;;
60935;SDS011;46804;51.786;19.520;2022-08-21T14:33:45;5.93;;;2.95;;
60935;SDS011;46804;51.786;19.520;2022-08-21T14:37:47;4.72;;;3.33;;
60935;SDS011;46804;51.786;19.520;2022-08-21T14:41:51;6.20;;;3.35;;
60935;SDS011;46804;51.786;19.520;2022-08-21T14:45:52;6.32;;;3.65;;
60935;SDS011;46804;51.786;19.520;2022-08-21T14:49:53;8.57;;;3.63;;
60935;SDS011;46804;51.786;19.520;2022-08-21T14:53:54;5.03;;;3.50;;
60935;SDS011;46804;51.786;19.520;2022-08-21T14:57:55;5.43;;;3.90;;
60935;SDS011;46804;51.786;19.520;2022-08-21T15:01:57;4.80;;;3.00;;
60935;SDS011;46804;51.786;19.520;2022-08-21T15:05:57;7.97;;;3.35;;
60935;SDS011;46804;51.786;19.520;2022-08-21T15:09:59;5.27;;;3.40;;
60935;SDS011;46804;51.786;19.520;2022-08-21T15:14:00;5.05;;;3.30;;
60935;SDS011;46804;51.786;19.520;2022-08-21T15:18:03;6.32;;;3.20;;
60935;SDS011;46804;51.786;19.520;2022-08-21T15:22:03;4.50;;;2.90;;
60935;SDS011;46804;51.786;19.520;2022-08-21T15:26:05;8.45;;;3.53;;
60935;SDS011;46804;51.786;19.520;2022-08-21T15:30:05;9.35;;;3.35;;
60935;SDS011;46804;51.786;19.520;2022-08-21T15:34:07;4.82;;;3.50;;
60935;SDS011;46804;51.786;19.520;2022-08-21T15:38:07;9.67;;;3.30;;
60935;SDS011;46804;51.786;19.520;2022-08-21T15:42:08;5.47;;;3.40;;
60935;SDS011;46804;51.786;19.520;2022-08-21T15:46:10;6.68;;;3.33;;
60935;SDS011;46804;51.786;19.520;2022-08-21T15:50:13;5.30;;;3.20;;
60935;SDS011;46804;51.786;19.520;2022-08-21T15:54:13;5.35;;;3.28;;
60935;SDS011;46804;51.786;19.520;2022-08-21T15:58:15;5.93;;;4.20;;
60935;SDS011;46804;51.786;19.520;2022-08-21T16:02:24;11.57;;;6.88;;
60935;SDS011;46804;51.786;19.520;2022-08-21T16:06:27;14.73;;;8.98;;
60935;SDS011;46804;51.786;19.520;2022-08-21T16:10:28;20.92;;;10.70;;
60935;SDS011;46804;51.786;19.520;2022-08-21T16:14:29;28.42;;;13.27;;
60935;SDS011;46804;51.786;19.520;2022-08-21T16:18:30;29.60;;;14.43;;
60935;SDS011;46804;51.786;19.520;2022-08-21T16:22:31;23.92;;;13.73;;
60935;SDS011;46804;51.786;19.520;2022-08-21T16:26:32;25.60;;;15.05;;
60935;SDS011;46804;51.786;19.520;2022-08-21T16:30:33;20.73;;;13.27;;
60935;SDS011;46804;51.786;19.520;2022-08-21T16:34:35;26.48;;;14.80;;
60935;SDS011;46804;51.786;19.520;2022-08-21T16:38:36;24.60;;;14.48;;
60935;SDS011;46804;51.786;19.520;2022-08-21T16:42:38;21.70;;;13.80;;
60935;SDS011;46804;51.786;19.520;2022-08-21T16:46:40;23.38;;;14.25;;
60935;SDS011;46804;51.786;19.520;2022-08-21T16:50:41;24.90;;;14.15;;
60935;SDS011;46804;51.786;19.520;2022-08-21T16:54:42;40.50;;;16.05;;
60935;SDS011;46804;51.786;19.520;2022-08-21T16:58:43;18.67;;;12.82;;
60935;SDS011;46804;51.786;19.520;2022-08-21T17:02:48;22.38;;;12.82;;
60935;SDS011;46804;51.786;19.520;2022-08-21T17:06:52;17.98;;;13.02;;
60935;SDS011;46804;51.786;19.520;2022-08-21T17:10:53;21.48;;;13.88;;
60935;SDS011;46804;51.786;19.520;2022-08-21T17:14:54;24.38;;;13.07;;
60935;SDS011;46804;51.786;19.520;2022-08-21T17:19:00;20.83;;;14.00;;
60935;SDS011;46804;51.786;19.520;2022-08-21T17:23:00;19.52;;;13.02;;
60935;SDS011;46804;51.786;19.520;2022-08-21T17:27:01;22.95;;;16.08;;
60935;SDS011;46804;51.786;19.520;2022-08-21T17:31:03;20.87;;;14.20;;
60935;SDS011;46804;51.786;19.520;2022-08-21T17:35:08;18.00;;;12.70;;
60935;SDS011;46804;51.786;19.520;2022-08-21T17:39:09;20.08;;;13.52;;
60935;SDS011;46804;51.786;19.520;2022-08-21T17:43:10;19.88;;;13.90;;
60935;SDS011;46804;51.786;19.520;2022-08-21T17:47:13;20.38;;;13.15;;
60935;SDS011;46804;51.786;19.520;2022-08-21T17:51:14;21.35;;;13.13;;
60935;SDS011;46804;51.786;19.520;2022-08-21T17:55:15;18.58;;;13.02;;
60935;SDS011;46804;51.786;19.520;2022-08-21T17:59:16;19.77;;;13.00;;
60935;SDS011;46804;51.786;19.520;2022-08-21T18:03:17;18.40;;;13.10;;
60935;SDS011;46804;51.786;19.520;2022-08-21T18:07:20;17.00;;;12.18;;
60935;SDS011;46804;51.786;19.520;2022-08-21T18:11:21;18.35;;;13.18;;
60935;SDS011;46804;51.786;19.520;2022-08-21T18:15:24;15.90;;;12.10;;
60935;SDS011;46804;51.786;19.520;2022-08-21T18:19:25;14.63;;;11.95;;
60935;SDS011;46804;51.786;19.520;2022-08-21T18:23:26;17.33;;;12.38;;
60935;SDS011;46804;51.786;19.520;2022-08-21T18:27:26;17.15;;;12.52;;
60935;SDS011;46804;51.786;19.520;2022-08-21T18:31:29;16.20;;;10.95;;
60935;SDS011;46804;51.786;19.520;2022-08-21T18:35:31;14.95;;;11.23;;
60935;SDS011;46804;51.786;19.520;2022-08-21T18:39:31;13.85;;;10.02;;
60935;SDS011;46804;51.786;19.520;2022-08-21T18:43:32;15.60;;;10.00;;
60935;SDS011;46804;51.786;19.520;2022-08-21T18:47:35;12.85;;;8.63;;
60935;SDS011;46804;51.786;19.520;2022-08-21T18:51:41;10.25;;;7.82;;
60935;SDS011;46804;51.786;19.520;2022-08-21T18:55:42;10.85;;;8.10;;
60935;SDS011;46804;51.786;19.520;2022-08-21T18:59:44;16.83;;;7.30;;
60935;SDS011;46804;51.786;19.520;2022-08-21T19:03:45;9.10;;;6.50;;
60935;SDS011;46804;51.786;19.520;2022-08-21T19:07:46;10.20;;;7.40;;
60935;SDS011;46804;51.786;19.520;2022-08-21T19:11:47;11.38;;;7.15;;
60935;SDS011;46804;51.786;19.520;2022-08-21T19:15:48;11.52;;;7.13;;
60935;SDS011;46804;51.786;19.520;2022-08-21T19:19:53;10.50;;;6.90;;
60935;SDS011;46804;51.786;19.520;2022-08-21T19:23:56;11.25;;;7.43;;
60935;SDS011;46804;51.786;19.520;2022-08-21T19:27:56;9.27;;;6.95;;
60935;SDS011;46804;51.786;19.520;2022-08-21T19:31:57;12.02;;;7.82;;
60935;SDS011;46804;51.786;19.520;2022-08-21T19:35:58;16.90;;;8.38;;
60935;SDS011;46804;51.786;19.520;2022-08-21T19:39:58;11.77;;;8.48;;
60935;SDS011;46804;51.786;19.520;2022-08-21T19:44:00;12.55;;;8.70;;
60935;SDS011;46804;51.786;19.520;2022-08-21T19:48:03;16.17;;;9.63;;
60935;SDS011;46804;51.786;19.520;2022-08-21T19:52:04;13.32;;;8.88;;
60935;SDS011;46804;51.786;19.520;2022-08-21T19:56:04;12.63;;;9.15;;
60935;SDS011;46804;51.786;19.520;2022-08-21T20:00:05;14.40;;;9.75;;
60935;SDS011;46804;51.786;19.520;2022-08-21T20:04:09;12.45;;;10.00;;
60935;SDS011;46804;51.786;19.520;2022-08-21T20:08:09;12.70;;;9.95;;
60935;SDS011;46804;51.786;19.520;2022-08-21T20:12:10;16.30;;;10.52;;
60935;SDS011;46804;51.786;19.520;2022-08-21T20:16:12;12.93;;;9.98;;
60935;SDS011;46804;51.786;19.520;2022-08-21T20:20:14;14.85;;;11.77;;
60935;SDS011;46804;51.786;19.520;2022-08-21T20:24:14;16.52;;;12.00;;
60935;SDS011;46804;51.786;19.520;2022-08-21T20:28:15;12.68;;;11.02;;
60935;SDS011;46804;51.786;19.520;2022-08-21T20:32:16;15.90;;;11.57;;
60935;SDS011;46804;51.786;19.520;2022-08-21T20:36:17;16.85;;;11.60;;
60935;SDS011;46804;51.786;19.520;2022-08-21T20:40:19;16.77;;;13.07;;
60935;SDS011;46804;51.786;19.520;2022-08-21T20:44:19;14.45;;;11.35;;
60935;SDS011;46804;51.786;19.520;2022-08-21T20:52:30;14.75;;;12.63;;
60935;SDS011;46804;51.786;19.520;2022-08-21T20:56:38;14.45;;;12.10;;
60935;SDS011;46804;51.786;19.520;2022-08-21T21:00:45;18.95;;;13.50;;
60935;SDS011;46804;51.786;19.520;2022-08-21T21:04:54;15.40;;;13.00;;
60935;SDS011;46804;51.786;19.520;2022-08-21T21:09:11;17.55;;;13.80;;
60935;SDS011;46804;51.786;19.520;2022-08-21T21:17:36;18.90;;;15.85;;
60935;SDS011;46804;51.786;19.520;2022-08-21T21:21:59;19.98;;;15.55;;
60935;SDS011;46804;51.786;19.520;2022-08-21T21:26:25;17.63;;;14.45;;
60935;SDS011;46804;51.786;19.520;2022-08-21T21:30:30;16.95;;;15.15;;
60935;SDS011;46804;51.786;19.520;2022-08-21T21:34:38;18.63;;;15.35;;
60935;SDS011;46804;51.786;19.520;2022-08-21T21:38:43;23.08;;;14.95;;
60935;SDS011;46804;51.786;19.520;2022-08-21T21:43:05;16.85;;;15.05;;
60935;SDS011;46804;51.786;19.520;2022-08-21T21:51:33;19.60;;;15.43;;
60935;SDS011;46804;51.786;19.520;2022-08-21T22:14:15;18.80;;;11.43;;
60935;SDS011;46804;51.786;19.520;2022-08-21T22:18:09;15.57;;;10.73;;
60935;SDS011;46804;51.786;19.520;2022-08-21T22:22:17;12.32;;;10.82;;
60935;SDS011;46804;51.786;19.520;2022-08-21T22:26:23;14.13;;;9.70;;
60935;SDS011;46804;51.786;19.520;2022-08-21T22:34:43;14.98;;;9.02;;
60935;SDS011;46804;51.786;19.520;2022-08-21T22:39:01;9.85;;;8.18;;
60935;SDS011;46804;51.786;19.520;2022-08-21T22:43:09;9.88;;;7.82;;
60935;SDS011;46804;51.786;19.520;2022-08-21T22:47:17;32.28;;;9.15;;
60935;SDS011;46804;51.786;19.520;2022-08-21T22:51:38;20.00;;;9.25;;
60935;SDS011;46804;51.786;19.520;2022-08-21T22:55:42;17.65;;;10.57;;
60935;SDS011;46804;51.786;19.520;2022-08-21T22:59:54;10.93;;;9.80;;
60935;SDS011;46804;51.786;19.520;2022-08-21T23:04:17;11.55;;;10.35;;
60935;SDS011;46804;51.786;19.520;2022-08-21T23:08:34;16.10;;;11.60;;
60935;SDS011;46804;51.786;19.520;2022-08-21T23:12:37;13.10;;;10.95;;
60935;SDS011;46804;51.786;19.520;2022-08-21T23:20:47;16.02;;;11.95;;
60935;SDS011;46804;51.786;19.520;2022-08-21T23:34:27;16.50;;;13.57;;
